Time;durP1;ratioP1;P1;durP2;ratioP2;P2;SDS_P1;SDS_P2;PMS_P1;PMS_P2;Temp;Humidity;BMP_temperature;BMP_pressure;BME280_temperature;BME280_humidity;BME280_pressure;Samples;Min_cycle;Max_cycle;Signal;HPM_P1;HPM_P2
2022/07/24 19:52:43;;;;;;;0.50;0.40;;;25.70;99.90;;;;;;5897538;22;20486;-81
2022/07/24 19:55:12;;;;;;;0.50;0.30;;;25.50;99.90;;;;;;5090260;28;20499;-80
2022/07/24 19:57:39;;;;;;;0.50;0.30;;;25.50;99.90;;;;;;5099278;28;20482;-85
2022/07/24 20:00:08;;;;;;;0.50;0.30;;;25.40;99.90;;;;;;5098766;28;20435;-84
2022/07/24 20:02:34;;;;;;;0.50;0.40;;;25.30;99.90;;;;;;5100573;28;20467;-82
2022/07/24 20:05:01;;;;;;;0.50;0.30;;;25.20;99.90;;;;;;5101828;28;20438;-85
2022/07/24 20:07:29;;;;;;;0.50;0.30;;;25.20;99.90;;;;;;5101198;28;20458;-86
2022/07/24 20:09:57;;;;;;;0.50;0.30;;;25.10;99.90;;;;;;5098581;28;20435;-85
2022/07/24 20:12:25;;;;;;;0.50;0.40;;;25.10;99.90;;;;;;5097981;28;20451;-85
2022/07/24 20:14:53;;;;;;;0.50;0.40;;;25.00;99.90;;;;;;5099509;28;20439;-85
2022/07/24 20:17:20;;;;;;;0.50;0.30;;;24.90;99.90;;;;;;5098990;28;20946;-86
2022/07/24 20:19:47;;;;;;;0.50;0.30;;;24.90;99.90;;;;;;5098256;28;20438;-85
2022/07/24 20:22:13;;;;;;;0.50;0.30;;;24.90;99.90;;;;;;5098928;28;20459;-84
2022/07/24 20:24:40;;;;;;;0.50;0.30;;;24.80;99.90;;;;;;5101331;28;20523;-84
2022/07/24 20:27:09;;;;;;;0.50;0.30;;;24.80;99.90;;;;;;5101319;28;20453;-82
2022/07/24 20:29:35;;;;;;;0.50;0.30;;;24.70;99.90;;;;;;5101547;28;20461;-84
2022/07/24 20:32:02;;;;;;;0.50;0.30;;;24.70;99.90;;;;;;5100554;28;20486;-84
2022/07/24 20:34:30;;;;;;;0.50;0.30;;;24.60;99.90;;;;;;5100993;28;20475;-84
2022/07/24 20:36:57;;;;;;;0.50;0.40;;;24.70;99.90;;;;;;5100761;28;20431;-84
2022/07/24 20:39:24;;;;;;;0.50;0.30;;;24.70;99.90;;;;;;5100151;28;20482;-83
2022/07/24 20:41:51;;;;;;;0.50;0.40;;;24.70;99.90;;;;;;5099912;28;20435;-84
2022/07/24 20:44:19;;;;;;;0.50;0.30;;;24.60;99.90;;;;;;5093130;28;20529;-84
2022/07/24 20:46:46;;;;;;;0.50;0.30;;;24.50;99.90;;;;;;5064878;28;20524;-84
2022/07/24 20:49:13;;;;;;;0.50;0.30;;;24.40;99.90;;;;;;5085758;28;20508;-84
2022/07/24 20:51:40;;;;;;;0.50;0.30;;;24.40;99.90;;;;;;5080727;28;20433;-84
2022/07/24 20:54:06;;;;;;;0.50;0.30;;;24.40;99.90;;;;;;5093822;28;20510;-85
2022/07/24 20:56:33;;;;;;;0.50;0.30;;;24.30;99.90;;;;;;5099941;28;20447;-84
2022/07/24 20:59:00;;;;;;;0.50;0.40;;;24.30;99.90;;;;;;5099691;28;20467;-84
2022/07/24 21:01:28;;;;;;;0.50;0.30;;;24.20;99.90;;;;;;5095299;28;20884;-81
2022/07/24 21:03:55;;;;;;;0.50;0.30;;;24.20;99.90;;;;;;5094519;28;20475;-82
2022/07/24 21:06:22;;;;;;;0.50;0.30;;;24.10;99.90;;;;;;5094731;28;20442;-82
2022/07/24 21:08:48;;;;;;;0.50;0.30;;;24.10;99.90;;;;;;5094756;28;20522;-86
2022/07/24 21:11:15;;;;;;;0.50;0.40;;;24.10;99.90;;;;;;5097864;28;20433;-85
2022/07/24 21:13:42;;;;;;;0.50;0.30;;;24.00;99.90;;;;;;5098311;28;20498;-85
2022/07/24 21:16:09;;;;;;;0.50;0.30;;;24.00;99.90;;;;;;5099281;28;20530;-86
2022/07/24 21:18:37;;;;;;;0.50;0.30;;;24.00;99.90;;;;;;5097821;28;20510;-86
2022/07/24 21:21:04;;;;;;;0.50;0.30;;;24.00;99.90;;;;;;5096658;28;21101;-82
2022/07/24 21:23:31;;;;;;;0.50;0.30;;;24.00;99.90;;;;;;5093283;28;20462;-83
2022/07/24 21:25:58;;;;;;;0.50;0.30;;;23.90;99.90;;;;;;5061965;28;20442;-83
2022/07/24 21:28:25;;;;;;;0.50;0.30;;;23.90;99.90;;;;;;5060893;28;20460;-84
2022/07/24 21:30:51;;;;;;;0.50;0.30;;;23.90;99.90;;;;;;5065649;28;20881;-86
2022/07/24 21:33:18;;;;;;;0.50;0.37;;;23.90;99.90;;;;;;5059712;28;20561;-85
2022/07/24 21:35:46;;;;;;;0.50;0.30;;;23.90;99.90;;;;;;5060280;28;20441;-84
2022/07/24 21:38:13;;;;;;;0.50;0.30;;;23.80;99.90;;;;;;5060509;28;20452;-85
2022/07/24 21:40:40;;;;;;;0.50;0.30;;;23.80;99.90;;;;;;5061010;28;20474;-85
2022/07/24 21:43:07;;;;;;;0.50;0.30;;;23.90;99.90;;;;;;5057131;28;20467;-84
2022/07/24 21:45:34;;;;;;;0.50;0.30;;;23.80;99.90;;;;;;5058953;28;20540;-84
2022/07/24 21:48:00;;;;;;;0.50;0.30;;;23.80;99.90;;;;;;5064518;28;20429;-83
2022/07/24 21:50:27;;;;;;;0.50;0.30;;;23.90;99.90;;;;;;5057787;28;20457;-83
2022/07/24 21:52:56;;;;;;;0.50;0.30;;;23.90;99.90;;;;;;5057591;28;20484;-81
2022/07/24 21:55:23;;;;;;;0.50;0.30;;;23.80;99.90;;;;;;5057278;28;20484;-84
2022/07/24 21:57:49;;;;;;;0.50;0.30;;;23.80;99.90;;;;;;5058085;28;20440;-84
2022/07/24 22:00:16;;;;;;;0.50;0.30;;;23.90;99.90;;;;;;5058153;28;20959;-84
2022/07/24 22:02:43;;;;;;;0.50;0.30;;;23.90;99.90;;;;;;5057648;28;20876;-84
2022/07/24 22:05:10;;;;;;;0.50;0.30;;;23.90;99.90;;;;;;5057547;28;20441;-85
2022/07/24 22:07:37;;;;;;;0.50;0.30;;;23.90;99.90;;;;;;5057594;28;20461;-84
2022/07/24 22:10:07;;;;;;;0.50;0.30;;;23.80;99.90;;;;;;5058586;28;20441;-84
2022/07/24 22:12:34;;;;;;;0.50;0.30;;;23.70;99.90;;;;;;5058037;28;20461;-84
2022/07/24 22:15:01;;;;;;;0.50;0.40;;;23.60;99.90;;;;;;5057968;28;20483;-84
2022/07/24 22:17:28;;;;;;;0.77;0.77;;;23.50;99.90;;;;;;5057389;28;20520;-83
2022/07/24 22:19:55;;;;;;;0.50;0.40;;;23.40;99.90;;;;;;5057601;28;20524;-84
2022/07/24 22:22:21;;;;;;;0.50;0.30;;;23.40;99.90;;;;;;5057739;28;20461;-84
2022/07/24 22:24:48;;;;;;;0.50;0.30;;;23.40;99.90;;;;;;5057752;28;20437;-84
2022/07/24 22:27:16;;;;;;;0.50;0.30;;;23.40;99.90;;;;;;5057759;28;20818;-83
2022/07/24 22:29:43;;;;;;;0.50;0.30;;;23.40;99.90;;;;;;5057047;28;20537;-83
2022/07/24 22:32:11;;;;;;;0.50;0.30;;;23.30;99.90;;;;;;5058011;28;20469;-84
2022/07/24 22:34:38;;;;;;;0.60;0.60;;;23.20;99.90;;;;;;5057370;28;20477;-80
2022/07/24 22:37:06;;;;;;;0.50;0.30;;;23.10;99.90;;;;;;5057368;28;20445;-84
2022/07/24 22:39:33;;;;;;;0.50;0.30;;;23.10;99.90;;;;;;5058371;28;20447;-84
2022/07/24 22:42:00;;;;;;;0.50;0.30;;;23.00;99.90;;;;;;5057471;28;20461;-83
2022/07/24 22:44:29;;;;;;;0.50;0.30;;;23.00;99.90;;;;;;5059265;28;20432;-85
2022/07/24 22:46:56;;;;;;;0.50;0.30;;;23.00;99.90;;;;;;5058593;28;20535;-84
2022/07/24 22:49:25;;;;;;;0.50;0.30;;;22.90;99.90;;;;;;5058104;28;20505;-84
2022/07/24 22:51:51;;;;;;;0.50;0.30;;;22.90;99.90;;;;;;5057242;28;20444;-79
2022/07/24 22:54:19;;;;;;;0.50;0.30;;;22.90;99.90;;;;;;5057719;28;20908;-83
2022/07/24 22:56:46;;;;;;;0.50;0.40;;;22.90;99.90;;;;;;5057289;28;20424;-83
2022/07/24 22:59:13;;;;;;;0.50;0.30;;;22.90;99.90;;;;;;5057262;28;20441;-84
2022/07/24 23:01:42;;;;;;;0.50;0.30;;;22.90;99.90;;;;;;5057104;28;20500;-84
2022/07/24 23:04:09;;;;;;;0.50;0.37;;;23.00;99.90;;;;;;5057070;28;20444;-83
2022/07/24 23:06:36;;;;;;;0.50;0.30;;;23.00;99.90;;;;;;5057647;28;20805;-83
2022/07/24 23:09:03;;;;;;;0.50;0.30;;;23.00;99.90;;;;;;5058052;28;20519;-84
2022/07/24 23:11:30;;;;;;;0.50;0.30;;;23.00;99.90;;;;;;5057029;28;21009;-83
2022/07/24 23:13:57;;;;;;;0.50;0.30;;;23.00;99.90;;;;;;5057201;28;20512;-83
2022/07/24 23:16:23;;;;;;;0.50;0.40;;;23.10;99.90;;;;;;5056083;28;20520;-85
2022/07/24 23:18:52;;;;;;;1.37;1.27;;;23.20;99.90;;;;;;5057169;28;20523;-83
2022/07/24 23:21:19;;;;;;;0.50;0.40;;;23.20;99.90;;;;;;5060520;28;20786;-81
2022/07/24 23:23:45;;;;;;;0.50;0.30;;;23.30;99.90;;;;;;5061025;28;20544;-84
2022/07/24 23:26:12;;;;;;;0.60;0.53;;;23.20;99.90;;;;;;5061493;28;20432;-80
2022/07/24 23:28:39;;;;;;;0.50;0.40;;;23.20;99.90;;;;;;5060287;28;20453;-83
2022/07/24 23:31:06;;;;;;;0.50;0.30;;;23.20;99.90;;;;;;5060036;28;20508;-83
2022/07/24 23:33:33;;;;;;;0.50;0.50;;;23.30;99.90;;;;;;5059924;28;20492;-83
2022/07/24 23:36:01;;;;;;;0.50;0.30;;;23.30;99.90;;;;;;5060738;28;20472;-83
2022/07/24 23:38:28;;;;;;;0.50;0.40;;;23.40;99.90;;;;;;5061162;28;20480;-83
2022/07/24 23:40:54;;;;;;;0.50;0.30;;;23.40;99.90;;;;;;5060896;28;20461;-83
2022/07/24 23:43:21;;;;;;;0.50;0.30;;;23.50;99.90;;;;;;5059667;28;20965;-83
2022/07/24 23:45:48;;;;;;;0.50;0.30;;;23.50;99.90;;;;;;5060977;28;20440;-83
2022/07/24 23:48:15;;;;;;;0.50;0.30;;;23.50;99.90;;;;;;5059722;28;20532;-83
2022/07/24 23:50:42;;;;;;;0.50;0.30;;;23.50;99.90;;;;;;5059123;28;20527;-81
2022/07/24 23:53:11;;;;;;;0.50;0.30;;;23.50;99.90;;;;;;5078114;28;20454;-83
2022/07/24 23:55:37;;;;;;;0.50;0.30;;;23.60;99.90;;;;;;5080687;28;20555;-83
2022/07/24 23:58:04;;;;;;;0.50;0.30;;;23.60;99.90;;;;;;5080076;28;20432;-84
